Cansado, Mauritania
Current Conditions -  °F | °C
As of 12:00 PM on Sunday 23 Nov 2014 (Local Time) from GQPP Reporting Station
Scattered Clouds Scattered Clouds  
Wind Chill: 73°   Ceiling: Unl
Heat Index: 73°   Visibility: 5mi
Dew Point: 64°   Wind: 9mph
Humidity: 73%   Direction: 300°WNW
Pressure: 30.03"   Gusts: NA
Location:  20.85°N, 17.03°W
Report Text: GQPP 231200Z 30008KT 8000 SCT006 23/18 Q1017 NOSIG
Loading
Personal Weather Stations






























Interactive Weather Map New forecast layout! Learn more

10-Day Weather Forecast

Advertisements
Track Severe Weather on mobile